Time;durP1;ratioP1;P1;durP2;ratioP2;P2;SDS_P1;SDS_P2;PMS_P1;PMS_P2;Temp;Humidity;BMP_temperature;BMP_pressure;BME280_temperature;BME280_humidity;BME280_pressure;Samples;Min_cycle;Max_cycle;Signal;HPM_P1;HPM_P2
2022/09/07 00:00:56;;;;;;;4.10;1.80;;;22.80;99.90;;;;;;5092102;28;20540;-84
2022/09/07 00:03:22;;;;;;;3.88;1.63;;;22.70;99.90;;;;;;5092868;28;20099;-84
2022/09/07 00:05:49;;;;;;;8.63;2.35;;;22.70;99.90;;;;;;5092380;28;20476;-84
2022/09/07 00:08:17;;;;;;;5.47;1.90;;;22.40;99.90;;;;;;5092406;28;20031;-84
2022/09/07 00:10:57;;;;;;;3.90;1.80;;;22.50;99.90;;;;;;5091925;28;20194;-84
2022/09/07 00:13:26;;;;;;;5.10;1.75;;;22.60;99.90;;;;;;5092737;28;20023;-84
2022/09/07 00:15:52;;;;;;;4.97;1.90;;;22.60;99.90;;;;;;5091972;28;20039;-84
2022/09/07 00:18:18;;;;;;;4.22;1.73;;;22.70;99.90;;;;;;5092233;28;20028;-84
2022/09/07 00:20:43;;;;;;;2.63;1.85;;;22.70;99.90;;;;;;5092057;28;20040;-84
2022/09/07 00:23:09;;;;;;;5.65;1.92;;;22.70;99.90;;;;;;5092567;28;20455;-84
2022/09/07 00:25:39;;;;;;;5.53;1.80;;;22.70;99.90;;;;;;5091848;28;20020;-84
2022/09/07 00:28:06;;;;;;;2.90;1.73;;;22.70;99.90;;;;;;5092165;28;20030;-84
2022/09/07 00:30:33;;;;;;;3.42;1.55;;;22.70;99.90;;;;;;5091748;28;20031;-84
2022/09/07 00:32:58;;;;;;;4.32;1.80;;;22.60;99.90;;;;;;5092447;28;20055;-84
2022/09/07 00:35:24;;;;;;;5.60;1.85;;;22.60;99.90;;;;;;5092149;28;20500;-84
2022/09/07 00:37:50;;;;;;;3.65;1.67;;;22.60;99.90;;;;;;5091929;28;20071;-84
2022/09/07 00:40:15;;;;;;;6.68;1.95;;;22.60;99.90;;;;;;5091345;28;20036;-84
2022/09/07 00:42:41;;;;;;;5.88;2.00;;;22.60;99.90;;;;;;5074003;28;20169;-84
2022/09/07 00:45:17;;;;;;;4.40;1.85;;;22.60;99.90;;;;;;5091872;28;20480;-83
2022/09/07 00:48:05;;;;;;;4.32;1.90;;;22.50;99.90;;;;;;5095594;28;20024;-84
2022/09/07 00:50:39;;;;;;;3.22;1.60;;;22.50;99.90;;;;;;5095668;28;20028;-84
2022/09/07 00:53:14;;;;;;;6.28;1.65;;;22.50;99.90;;;;;;5095759;28;20031;-84
2022/09/07 00:55:43;;;;;;;3.55;1.83;;;22.40;99.90;;;;;;5095481;28;20027;-84
2022/09/07 00:58:10;;;;;;;4.70;1.70;;;22.30;99.90;;;;;;5095664;28;20039;-84
2022/09/07 01:00:38;;;;;;;4.30;1.88;;;22.30;99.90;;;;;;5095771;28;20123;-85
2022/09/07 01:03:04;;;;;;;4.03;2.00;;;22.40;99.90;;;;;;5095503;28;20077;-84
2022/09/07 01:05:41;;;;;;;3.45;2.10;;;22.40;99.90;;;;;;5095916;28;20483;-84
2022/09/07 01:08:08;;;;;;;4.55;1.90;;;22.40;99.90;;;;;;5095223;28;20056;-83
2022/09/07 01:10:35;;;;;;;3.05;1.92;;;22.30;99.90;;;;;;5095486;28;20055;-84
2022/09/07 01:13:00;;;;;;;3.35;1.80;;;22.30;99.90;;;;;;5095194;28;20028;-84
2022/09/07 01:15:55;;;;;;;4.63;2.17;;;22.30;99.90;;;;;;5099102;28;20035;-84
2022/09/07 01:18:32;;;;;;;5.65;1.75;;;22.20;99.90;;;;;;5115032;28;20506;-84
2022/09/07 01:21:12;;;;;;;3.55;1.88;;;22.20;99.90;;;;;;5115830;28;20036;-84
2022/09/07 01:24:21;;;;;;;3.70;1.83;;;22.10;99.90;;;;;;5115312;28;20016;-84
2022/09/07 01:27:27;;;;;;;2.15;1.50;;;22.20;99.90;;;;;;5115575;28;20376;-83
2022/09/07 01:30:07;;;;;;;5.45;1.85;;;22.20;99.90;;;;;;5107645;28;20024;-84
2022/09/07 01:33:03;;;;;;;5.32;1.60;;;22.20;99.90;;;;;;5095199;28;20074;-84
2022/09/07 01:35:40;;;;;;;4.07;1.70;;;22.20;99.90;;;;;;5095193;28;20053;-84
2022/09/07 01:38:16;;;;;;;5.10;1.80;;;22.20;99.90;;;;;;5094989;28;20016;-84
2022/09/07 01:41:03;;;;;;;5.80;1.80;;;22.20;99.90;;;;;;5095012;28;20096;-84
2022/09/07 01:43:34;;;;;;;3.50;1.95;;;22.20;99.90;;;;;;5094713;28;20020;-84
2022/09/07 01:46:04;;;;;;;5.63;1.95;;;22.20;99.90;;;;;;5094942;28;20559;-84
2022/09/07 01:48:32;;;;;;;4.75;2.00;;;22.30;99.90;;;;;;5094786;28;20549;-84
2022/09/07 01:51:03;;;;;;;7.13;1.80;;;22.20;99.90;;;;;;5094586;28;20056;-84
2022/09/07 01:53:33;;;;;;;3.88;1.70;;;22.20;99.90;;;;;;5094744;28;20144;-84
2022/09/07 01:56:26;;;;;;;4.75;1.80;;;22.20;99.90;;;;;;5094627;28;20480;-84
2022/09/07 01:59:00;;;;;;;4.32;1.85;;;22.20;99.90;;;;;;5089195;28;20040;-84
2022/09/07 02:01:39;;;;;;;4.40;2.00;;;22.20;99.90;;;;;;5094384;28;20533;-84
2022/09/07 02:04:17;;;;;;;5.15;2.00;;;22.20;99.90;;;;;;5094531;28;20016;-84
2022/09/07 02:06:58;;;;;;;4.07;2.00;;;22.10;99.90;;;;;;5094248;28;20032;-84
2022/09/07 02:09:30;;;;;;;4.63;1.80;;;22.10;99.90;;;;;;5094375;28;20495;-84
2022/09/07 02:11:59;;;;;;;4.55;1.73;;;22.00;99.90;;;;;;5094319;28;20500;-84
2022/09/07 02:14:31;;;;;;;4.03;1.88;;;22.00;99.90;;;;;;5094173;28;20103;-83
2022/09/07 02:17:27;;;;;;;5.07;1.90;;;21.90;99.90;;;;;;5110332;28;20027;-83
2022/09/07 02:20:03;;;;;;;4.13;1.90;;;21.80;99.90;;;;;;5114826;28;20119;-84
2022/09/07 02:22:33;;;;;;;5.07;1.73;;;21.70;99.90;;;;;;5114074;28;20015;-84
2022/09/07 02:25:02;;;;;;;5.63;1.90;;;21.80;99.90;;;;;;5114875;28;20060;-84
2022/09/07 02:28:03;;;;;;;4.00;1.77;;;21.70;99.90;;;;;;5114295;28;20522;-84
2022/09/07 02:30:28;;;;;;;3.13;1.80;;;21.70;99.90;;;;;;5083771;28;20036;-84
2022/09/07 02:32:55;;;;;;;3.58;1.90;;;21.50;99.90;;;;;;5093977;28;20065;-84
2022/09/07 02:35:21;;;;;;;4.35;1.80;;;21.40;99.90;;;;;;5094033;28;20024;-83
2022/09/07 02:37:49;;;;;;;7.65;2.10;;;21.40;99.90;;;;;;5093816;28;20024;-84
2022/09/07 02:40:14;;;;;;;3.45;1.83;;;21.40;99.90;;;;;;5093712;28;20043;-84
2022/09/07 02:42:41;;;;;;;2.28;1.73;;;21.40;99.90;;;;;;5093761;28;20016;-84
2022/09/07 02:45:09;;;;;;;5.28;2.05;;;21.40;99.90;;;;;;5093977;28;20043;-84
2022/09/07 02:47:44;;;;;;;4.38;1.80;;;21.40;99.90;;;;;;5093561;28;20024;-84
2022/09/07 02:50:46;;;;;;;4.35;1.90;;;21.30;99.90;;;;;;5093379;28;20043;-84
2022/09/07 02:53:15;;;;;;;2.78;1.80;;;21.10;99.90;;;;;;5093561;28;20088;-84
2022/09/07 02:55:51;;;;;;;3.58;2.10;;;21.20;99.90;;;;;;5093726;28;20488;-84
2022/09/07 02:59:08;;;;;;;4.72;2.00;;;21.10;99.90;;;;;;5093316;28;20024;-84
2022/09/07 03:01:47;;;;;;;3.15;1.75;;;21.00;99.90;;;;;;5011284;28;20076;-84
2022/09/07 03:04:34;;;;;;;5.45;2.03;;;20.90;99.90;;;;;;5010888;28;20037;-84
2022/09/07 03:07:14;;;;;;;4.78;2.13;;;21.00;99.90;;;;;;5011101;28;20040;-83
2022/09/07 03:09:44;;;;;;;5.47;1.98;;;21.10;99.90;;;;;;5010757;28;20061;-84
2022/09/07 03:12:11;;;;;;;5.03;2.20;;;21.10;99.90;;;;;;5010956;28;20034;-84
2022/09/07 03:14:40;;;;;;;4.18;2.00;;;21.20;99.90;;;;;;5011088;28;20042;-84
2022/09/07 03:17:06;;;;;;;5.10;2.40;;;21.20;99.90;;;;;;5027707;28;20037;-84
2022/09/07 03:19:31;;;;;;;6.10;1.88;;;21.20;99.90;;;;;;5013670;28;20098;-84
2022/09/07 03:21:57;;;;;;;5.43;2.17;;;21.20;99.90;;;;;;5031060;28;20481;-83
2022/09/07 03:24:23;;;;;;;5.85;2.50;;;21.20;99.90;;;;;;5030446;28;20034;-83
2022/09/07 03:26:50;;;;;;;4.32;2.00;;;21.20;99.90;;;;;;5030626;28;20489;-84
2022/09/07 03:29:16;;;;;;;5.45;2.08;;;21.20;99.90;;;;;;5028000;28;20071;-84
2022/09/07 03:31:42;;;;;;;5.57;1.92;;;21.20;99.90;;;;;;5010743;28;20053;-84
2022/09/07 03:34:08;;;;;;;4.97;1.95;;;21.00;99.90;;;;;;5010612;28;20167;-84
2022/09/07 03:36:34;;;;;;;3.05;2.08;;;21.10;99.90;;;;;;5017923;28;20389;-84
2022/09/07 03:38:59;;;;;;;3.35;2.10;;;21.00;99.90;;;;;;5072267;28;20029;-85
2022/09/07 03:41:27;;;;;;;3.97;2.20;;;21.00;99.90;;;;;;5072383;28;20566;-84
2022/09/07 03:43:53;;;;;;;2.88;1.90;;;21.00;99.90;;;;;;5072389;28;20134;-84
2022/09/07 03:46:19;;;;;;;4.25;2.22;;;21.00;99.90;;;;;;5072352;28;20036;-84
2022/09/07 03:48:46;;;;;;;4.43;2.10;;;20.90;99.90;;;;;;5072364;28;20012;-84
2022/09/07 03:51:13;;;;;;;4.40;2.20;;;20.90;99.90;;;;;;5072314;28;20097;-84
2022/09/07 03:53:41;;;;;;;5.32;2.30;;;20.90;99.90;;;;;;5072315;28;20419;-83
2022/09/07 03:56:09;;;;;;;3.92;2.08;;;20.80;99.90;;;;;;5072263;28;20043;-84
2022/09/07 03:58:36;;;;;;;4.30;2.28;;;20.80;99.90;;;;;;5072214;28;20107;-84
2022/09/07 04:01:07;;;;;;;4.82;2.13;;;20.80;99.90;;;;;;5072417;28;20037;-84
2022/09/07 04:03:33;;;;;;;6.80;2.25;;;20.80;99.90;;;;;;5071867;28;20032;-83
2022/09/07 04:06:00;;;;;;;5.43;2.20;;;20.80;99.90;;;;;;5072191;28;20093;-84
2022/09/07 04:08:27;;;;;;;4.00;2.40;;;20.80;99.90;;;;;;5071926;28;20032;-83
2022/09/07 04:10:56;;;;;;;4.43;2.30;;;20.80;99.90;;;;;;5072074;28;20063;-83
2022/09/07 04:13:21;;;;;;;3.13;1.92;;;20.70;99.90;;;;;;5072238;28;20103;-84
2022/09/07 04:15:47;;;;;;;3.75;2.10;;;20.80;99.90;;;;;;5084900;28;20070;-84
2022/09/07 04:18:13;;;;;;;3.05;2.30;;;20.70;99.90;;;;;;5112264;28;20023;-84
2022/09/07 04:20:38;;;;;;;4.50;2.30;;;20.60;99.90;;;;;;5112825;28;20085;-83
2022/09/07 04:23:04;;;;;;;4.65;2.10;;;20.50;99.90;;;;;;5116687;28;20019;-84
2022/09/07 04:25:30;;;;;;;7.95;2.58;;;20.50;99.90;;;;;;5116691;28;20479;-84
2022/09/07 04:27:55;;;;;;;4.90;2.78;;;20.40;99.90;;;;;;5116750;28;20349;-84
2022/09/07 04:30:21;;;;;;;4.30;2.30;;;20.40;99.90;;;;;;5105470;28;20031;-84
2022/09/07 04:32:46;;;;;;;5.35;2.40;;;20.40;99.90;;;;;;5095988;28;20036;-84
2022/09/07 04:35:13;;;;;;;5.13;2.40;;;20.40;99.90;;;;;;5096256;28;20449;-83
2022/09/07 04:37:38;;;;;;;4.15;2.33;;;20.40;99.90;;;;;;5096067;28;20020;-84
2022/09/07 04:40:04;;;;;;;6.25;2.53;;;20.50;99.90;;;;;;5096096;28;20123;-83
2022/09/07 04:42:30;;;;;;;3.10;2.40;;;20.50;99.90;;;;;;5096143;28;20024;-84
2022/09/07 04:44:56;;;;;;;6.68;2.85;;;20.30;99.90;;;;;;5096334;28;20373;-84
2022/09/07 04:47:22;;;;;;;7.80;2.55;;;20.40;99.90;;;;;;5095713;28;20028;-83
2022/09/07 04:49:51;;;;;;;5.53;2.40;;;20.40;99.90;;;;;;5095933;28;20024;-84
2022/09/07 04:52:18;;;;;;;4.60;2.72;;;20.40;99.90;;;;;;5096129;28;20028;-84
2022/09/07 04:54:47;;;;;;;5.60;2.63;;;20.20;99.90;;;;;;5095979;28;20024;-84
2022/09/07 04:57:12;;;;;;;6.30;2.30;;;20.20;99.90;;;;;;5095908;28;20023;-83
2022/09/07 04:59:38;;;;;;;5.25;2.47;;;20.30;99.90;;;;;;5077413;28;20408;-84
2022/09/07 05:02:04;;;;;;;5.35;2.50;;;20.20;99.90;;;;;;5095403;28;20017;-84
2022/09/07 05:04:29;;;;;;;3.45;2.33;;;20.20;99.90;;;;;;5095498;28;20034;-84
2022/09/07 05:06:55;;;;;;;5.97;2.75;;;20.20;99.90;;;;;;5095509;28;20032;-84
2022/09/07 05:09:20;;;;;;;6.10;2.70;;;20.10;99.90;;;;;;5095945;28;20027;-83
2022/09/07 05:11:46;;;;;;;4.45;2.72;;;20.10;99.90;;;;;;5095523;28;20036;-83
2022/09/07 05:14:12;;;;;;;5.82;2.65;;;20.00;99.90;;;;;;5095607;28;20028;-84
2022/09/07 05:16:37;;;;;;;8.95;2.85;;;20.00;99.90;;;;;;5095162;28;20444;-84
2022/09/07 05:19:03;;;;;;;3.97;2.78;;;19.90;99.90;;;;;;5095302;28;20017;-84
2022/09/07 05:21:33;;;;;;;5.55;2.80;;;19.80;99.90;;;;;;5095241;28;20028;-83
2022/09/07 05:24:00;;;;;;;5.70;2.70;;;19.90;99.90;;;;;;5095722;28;20024;-83
2022/09/07 05:26:28;;;;;;;8.88;3.22;;;20.00;99.90;;;;;;5095063;28;20020;-83
2022/09/07 05:28:54;;;;;;;5.25;2.63;;;20.00;99.90;;;;;;5095043;28;20075;-84
2022/09/07 05:31:21;;;;;;;7.15;2.75;;;20.10;99.90;;;;;;5094278;28;20404;-83
2022/09/07 05:33:49;;;;;;;6.03;3.00;;;20.10;99.90;;;;;;5095138;28;20032;-84
2022/09/07 05:36:15;;;;;;;3.80;2.50;;;20.00;99.90;;;;;;5095086;28;20051;-84
2022/09/07 05:38:41;;;;;;;7.07;2.97;;;20.00;99.90;;;;;;5094604;28;20052;-83
2022/09/07 05:41:12;;;;;;;6.07;2.90;;;20.10;99.90;;;;;;5094761;28;20456;-84
2022/09/07 05:43:38;;;;;;;4.25;2.90;;;20.20;99.90;;;;;;5094527;28;20024;-84
2022/09/07 05:46:04;;;;;;;5.90;2.92;;;20.20;99.90;;;;;;5094801;28;20077;-84
2022/09/07 05:48:29;;;;;;;7.15;2.90;;;20.20;99.90;;;;;;5094967;28;20035;-84
2022/09/07 05:50:55;;;;;;;7.95;3.30;;;20.30;99.90;;;;;;5076319;28;20031;-84
2022/09/07 05:53:21;;;;;;;7.55;3.05;;;20.50;99.90;;;;;;5094733;28;20055;-84
2022/09/07 05:55:49;;;;;;;6.95;2.83;;;20.50;99.90;;;;;;5094567;28;20059;-84
2022/09/07 05:58:15;;;;;;;7.22;3.17;;;20.60;99.90;;;;;;5094099;28;20020;-83
2022/09/07 06:00:41;;;;;;;6.65;3.00;;;20.80;99.90;;;;;;5094561;28;20043;-84
2022/09/07 06:03:07;;;;;;;6.18;2.72;;;20.80;99.90;;;;;;5094260;28;20476;-84
2022/09/07 06:05:32;;;;;;;10.10;2.90;;;20.90;99.90;;;;;;5094387;28;20501;-83
2022/09/07 06:07:58;;;;;;;5.63;2.95;;;20.90;99.90;;;;;;5094879;28;20035;-84
2022/09/07 06:10:24;;;;;;;7.45;2.95;;;20.90;99.90;;;;;;5094273;28;20115;-84
2022/09/07 06:12:50;;;;;;;5.57;3.00;;;21.00;99.90;;;;;;5094046;28;20032;-84
2022/09/07 06:15:16;;;;;;;9.80;3.22;;;21.10;99.90;;;;;;5094295;28;20506;-84
2022/09/07 06:17:42;;;;;;;6.22;3.20;;;21.20;99.90;;;;;;5094104;28;20028;-84
2022/09/07 06:20:08;;;;;;;6.47;3.20;;;21.20;99.90;;;;;;5094010;28;20036;-84
2022/09/07 06:22:37;;;;;;;6.75;3.47;;;21.30;99.90;;;;;;5094162;28;20035;-84
2022/09/07 06:25:03;;;;;;;5.60;3.55;;;21.40;99.90;;;;;;5094097;28;20023;-84
2022/09/07 06:27:29;;;;;;;11.65;3.65;;;21.40;99.90;;;;;;5094015;28;20021;-84
2022/09/07 06:29:55;;;;;;;6.25;3.83;;;21.50;99.90;;;;;;5093837;28;20108;-84
2022/09/07 06:32:21;;;;;;;5.13;3.20;;;21.60;99.90;;;;;;5093345;28;20043;-84
2022/09/07 06:34:46;;;;;;;9.63;3.83;;;21.70;99.90;;;;;;5093920;28;20493;-84
2022/09/07 06:37:12;;;;;;;11.02;3.60;;;21.80;99.90;;;;;;5093465;28;20107;-84
2022/09/07 06:39:38;;;;;;;7.53;3.47;;;21.90;99.90;;;;;;5092642;28;20032;-84
2022/09/07 06:42:04;;;;;;;6.35;3.45;;;22.00;99.90;;;;;;5093503;28;20031;-84
2022/09/07 06:44:30;;;;;;;7.25;3.80;;;22.10;99.90;;;;;;5092813;28;20031;-84
2022/09/07 06:46:55;;;;;;;7.50;3.70;;;22.10;99.90;;;;;;5073851;28;20455;-83
2022/09/07 06:49:22;;;;;;;9.38;3.63;;;22.30;99.90;;;;;;5093163;28;20067;-83
2022/09/07 06:51:48;;;;;;;10.82;4.03;;;22.30;99.90;;;;;;5093738;28;20400;-83
2022/09/07 06:54:14;;;;;;;11.00;3.40;;;22.40;99.90;;;;;;5093248;28;20036;-83
2022/09/07 06:56:39;;;;;;;7.38;3.47;;;22.50;99.90;;;;;;5096393;28;20028;-82
2022/09/07 06:59:05;;;;;;;8.60;3.05;;;22.90;99.90;;;;;;5075544;28;20047;-84
2022/09/07 07:01:32;;;;;;;8.68;3.63;;;23.20;99.90;;;;;;5092076;28;20408;-84
2022/09/07 07:04:00;;;;;;;10.27;3.53;;;23.40;99.90;;;;;;5096973;28;20032;-83
2022/09/07 07:06:36;;;;;;;6.53;3.47;;;23.80;99.90;;;;;;5113474;28;20028;-84
2022/09/07 07:09:04;;;;;;;5.80;3.17;;;24.30;99.90;;;;;;5113594;28;20103;-84
2022/09/07 07:11:32;;;;;;;6.28;3.00;;;24.10;99.90;;;;;;5112245;28;20032;-84
2022/09/07 07:13:58;;;;;;;15.07;4.03;;;24.10;99.90;;;;;;5112367;28;20038;-84
2022/09/07 07:16:25;;;;;;;7.03;3.03;;;24.10;99.90;;;;;;5101277;28;20038;-84
2022/09/07 07:18:54;;;;;;;9.13;2.80;;;24.10;99.90;;;;;;5096036;28;20472;-84
2022/09/07 07:21:20;;;;;;;6.07;3.00;;;24.40;99.90;;;;;;5113077;28;20025;-83
2022/09/07 07:23:50;;;;;;;9.45;3.30;;;24.30;99.90;;;;;;5113567;28;20028;-84
2022/09/07 07:26:21;;;;;;;5.65;3.22;;;24.20;99.90;;;;;;5112903;28;20081;-84
2022/09/07 07:28:48;;;;;;;11.07;3.45;;;23.90;99.90;;;;;;5096262;28;20016;-84
2022/09/07 07:31:16;;;;;;;5.18;2.83;;;24.10;99.90;;;;;;5092418;28;20555;-84
2022/09/07 07:33:42;;;;;;;7.40;3.22;;;24.30;99.90;;;;;;5093097;28;20020;-84
2022/09/07 07:36:16;;;;;;;8.93;2.67;;;24.50;99.90;;;;;;5092734;28;20039;-84
2022/09/07 07:38:44;;;;;;;8.77;2.70;;;24.60;99.90;;;;;;5093086;28;20059;-84
2022/09/07 07:41:10;;;;;;;7.28;2.80;;;24.70;99.90;;;;;;5092239;28;20039;-84
2022/09/07 07:43:36;;;;;;;7.80;2.90;;;24.50;99.90;;;;;;5092723;28;20028;-84
2022/09/07 07:46:02;;;;;;;4.45;2.50;;;24.30;99.90;;;;;;5073872;28;20104;-84
2022/09/07 07:48:30;;;;;;;6.97;2.78;;;24.30;99.90;;;;;;5092441;28;20017;-84
2022/09/07 07:51:00;;;;;;;7.03;2.83;;;24.30;99.90;;;;;;5092576;28;20396;-83
2022/09/07 07:53:27;;;;;;;5.00;2.50;;;24.10;99.90;;;;;;5092392;28;20028;-84
2022/09/07 07:55:55;;;;;;;7.72;2.70;;;24.20;99.90;;;;;;5092678;28;20032;-84
2022/09/07 07:58:21;;;;;;;7.32;2.70;;;24.40;99.90;;;;;;5092121;28;20031;-84
2022/09/07 08:00:47;;;;;;;7.60;2.53;;;24.30;99.90;;;;;;5091963;28;20124;-84
2022/09/07 08:03:13;;;;;;;6.85;2.90;;;24.50;99.90;;;;;;5104089;28;20084;-84
2022/09/07 08:05:38;;;;;;;6.93;2.70;;;24.40;99.90;;;;;;5107926;28;20081;-84
2022/09/07 08:08:04;;;;;;;4.00;2.00;;;24.50;99.90;;;;;;5111265;28;20016;-84
2022/09/07 08:10:30;;;;;;;7.60;2.28;;;25.00;99.90;;;;;;5093505;28;20013;-84
2022/09/07 08:12:56;;;;;;;5.40;2.63;;;25.30;99.90;;;;;;5105221;28;20440;-84
2022/09/07 08:15:22;;;;;;;6.00;2.38;;;25.50;99.90;;;;;;5090749;28;20432;-83
2022/09/07 08:17:48;;;;;;;4.05;2.38;;;25.90;99.90;;;;;;5103215;28;20121;-84
2022/09/07 08:20:14;;;;;;;6.32;2.45;;;26.20;99.90;;;;;;5084162;28;20032;-84
2022/09/07 08:22:40;;;;;;;5.60;2.70;;;26.10;99.90;;;;;;5091539;28;20029;-84
2022/09/07 08:25:06;;;;;;;4.28;2.55;;;26.20;99.90;;;;;;5092011;28;20028;-84
2022/09/07 08:27:33;;;;;;;7.82;2.40;;;26.50;99.90;;;;;;5090811;28;20032;-84
2022/09/07 08:29:59;;;;;;;5.70;2.40;;;26.70;99.90;;;;;;5092051;28;20028;-84
2022/09/07 08:32:25;;;;;;;5.88;2.45;;;26.40;99.90;;;;;;5073294;28;20555;-84
2022/09/07 08:34:51;;;;;;;7.22;2.50;;;26.30;99.90;;;;;;5091979;28;20024;-84
2022/09/07 08:37:17;;;;;;;11.82;2.70;;;26.40;99.90;;;;;;5091570;28;20442;-84
2022/09/07 08:39:42;;;;;;;7.22;2.33;;;26.20;99.90;;;;;;5091412;28;20024;-90
2022/09/07 08:42:39;;;;;;;6.43;2.70;;;26.20;99.90;;;;;;5091889;28;20039;-86
2022/09/07 08:45:16;;;;;;;5.13;2.35;;;26.60;99.90;;;;;;5091631;28;20484;-84
2022/09/07 08:47:49;;;;;;;6.10;2.58;;;27.10;99.90;;;;;;5091686;28;20445;-89
2022/09/07 08:50:28;;;;;;;5.75;2.75;;;27.20;99.90;;;;;;5091066;28;20459;-84
2022/09/07 08:53:03;;;;;;;8.25;2.55;;;26.90;99.90;;;;;;5101642;28;20118;-84
2022/09/07 08:55:37;;;;;;;5.93;2.30;;;26.50;99.90;;;;;;5109350;28;20502;-84
2022/09/07 08:58:24;;;;;;;7.03;2.65;;;26.20;99.90;;;;;;5091515;28;20027;-84
2022/09/07 09:00:50;;;;;;;7.55;2.50;;;26.00;99.90;;;;;;5091799;28;20043;-84
2022/09/07 09:03:30;;;;;;;5.60;2.60;;;25.30;99.90;;;;;;5091580;28;20414;-84
2022/09/07 09:06:28;;;;;;;6.85;2.50;;;25.40;99.90;;;;;;5091977;28;20103;-84
2022/09/07 09:09:28;;;;;;;5.20;2.25;;;25.80;99.90;;;;;;5079368;28;20105;-84
2022/09/07 09:12:06;;;;;;;5.70;2.50;;;26.20;99.90;;;;;;5095469;28;20082;-84
2022/09/07 09:14:32;;;;;;;6.20;2.40;;;26.00;99.90;;;;;;5095068;28;20035;-85
2022/09/07 09:17:02;;;;;;;7.22;2.35;;;26.00;99.90;;;;;;5094451;28;20028;-84
2022/09/07 09:20:04;;;;;;;8.23;2.78;;;26.10;99.90;;;;;;5088087;28;20480;-85
2022/09/07 09:22:30;;;;;;;7.63;2.45;;;26.30;99.90;;;;;;5094419;28;20556;-84
2022/09/07 09:25:17;;;;;;;7.68;2.30;;;26.30;99.90;;;;;;5094717;28;20099;-84
2022/09/07 09:27:42;;;;;;;6.28;2.70;;;26.20;99.90;;;;;;5095227;28;20043;-84
2022/09/07 09:30:13;;;;;;;5.20;2.95;;;26.60;99.90;;;;;;5095615;28;20050;-85
2022/09/07 09:32:41;;;;;;;5.80;2.40;;;27.10;99.90;;;;;;5093900;28;20538;-85
2022/09/07 09:35:35;;;;;;;4.68;2.53;;;27.40;99.90;;;;;;5075041;28;20020;-84
2022/09/07 09:38:03;;;;;;;6.75;2.30;;;27.80;99.90;;;;;;5082624;28;20031;-84
2022/09/07 09:40:32;;;;;;;7.72;2.28;;;28.10;99.90;;;;;;5094526;28;20075;-85
2022/09/07 09:43:03;;;;;;;6.85;2.30;;;28.60;99.90;;;;;;5095462;28;20115;-85
2022/09/07 09:45:34;;;;;;;5.40;2.20;;;31.70;99.90;;;;;;5094996;28;20364;-84
2022/09/07 09:48:01;;;;;;;6.88;2.17;;;36.20;99.90;;;;;;5095044;28;20025;-84
2022/09/07 09:50:35;;;;;;;6.00;2.00;;;38.90;99.90;;;;;;5094553;28;20103;-86
2022/09/07 09:53:04;;;;;;;4.10;2.30;;;39.40;99.90;;;;;;5093810;28;20031;-85
2022/09/07 09:55:34;;;;;;;6.55;2.13;;;40.50;99.90;;;;;;5094416;28;20111;-86
2022/09/07 09:58:02;;;;;;;4.88;2.13;;;39.90;99.90;;;;;;5095164;28;20489;-85
2022/09/07 10:00:30;;;;;;;6.35;2.08;;;40.80;99.90;;;;;;5094224;28;20476;-86
2022/09/07 10:03:12;;;;;;;5.63;2.30;;;42.40;99.90;;;;;;5094466;28;20020;-86
2022/09/07 10:05:40;;;;;;;7.28;2.45;;;38.40;99.90;;;;;;5093545;28;20131;-85
2022/09/07 10:08:19;;;;;;;4.25;2.17;;;38.80;99.90;;;;;;5094425;28;20035;-86
2022/09/07 10:10:56;;;;;;;8.50;2.55;;;41.00;99.90;;;;;;5094384;28;20040;-86
2022/09/07 10:13:27;;;;;;;6.63;2.30;;;42.50;99.90;;;;;;5094468;28;20070;-86
2022/09/07 10:15:55;;;;;;;5.70;2.40;;;43.90;99.90;;;;;;5094051;28;20036;-86
2022/09/07 10:18:36;;;;;;;9.60;2.60;;;44.60;99.90;;;;;;5075172;28;20381;-86
2022/09/07 10:21:22;;;;;;;3.95;2.00;;;44.80;99.90;;;;;;5094382;28;20035;-86
2022/09/07 10:24:12;;;;;;;7.55;2.30;;;43.80;99.90;;;;;;5094064;28;20036;-86
2022/09/07 10:26:39;;;;;;;7.18;2.28;;;43.60;99.90;;;;;;5094183;28;20096;-87
2022/09/07 10:29:21;;;;;;;5.00;2.00;;;44.40;99.90;;;;;;5093994;28;20122;-85
2022/09/07 10:32:21;;;;;;;6.15;2.33;;;40.90;99.90;;;;;;5093818;28;20087;-86
2022/09/07 10:35:02;;;;;;;3.58;1.90;;;40.40;99.90;;;;;;5094062;28;20023;-86
2022/09/07 10:38:04;;;;;;;6.32;2.50;;;43.30;99.90;;;;;;5094085;28;20074;-86
2022/09/07 10:40:34;;;;;;;4.75;2.20;;;46.10;99.90;;;;;;5093566;28;20039;-86
2022/09/07 10:43:11;;;;;;;8.82;2.58;;;43.40;99.90;;;;;;5093932;28;20431;-86
2022/09/07 10:46:05;;;;;;;5.60;2.50;;;45.00;99.90;;;;;;5093572;28;20097;-87
2022/09/07 10:48:43;;;;;;;5.03;2.38;;;44.70;99.90;;;;;;5093638;28;20073;-86
2022/09/07 10:51:16;;;;;;;4.53;2.20;;;46.10;99.90;;;;;;5093837;28;20452;-87
2022/09/07 10:54:13;;;;;;;9.25;2.60;;;45.30;99.90;;;;;;5093432;28;20031;-87
2022/09/07 10:56:59;;;;;;;6.20;2.25;;;43.20;99.90;;;;;;5093578;28;20028;-86
2022/09/07 10:59:39;;;;;;;4.72;2.25;;;44.90;99.90;;;;;;5093369;28;20448;-87
2022/09/07 11:02:29;;;;;;;7.50;2.75;;;47.80;99.90;;;;;;5093482;28;20107;-87
2022/09/07 11:05:15;;;;;;;7.72;2.67;;;47.20;99.90;;;;;;5093422;28;20028;-87
2022/09/07 11:08:03;;;;;;;6.60;2.70;;;41.00;99.90;;;;;;5093533;28;20020;-87
2022/09/07 11:10:52;;;;;;;5.68;2.40;;;36.80;99.90;;;;;;5093273;28;20028;-87
2022/09/07 11:13:23;;;;;;;9.65;2.60;;;34.80;99.90;;;;;;5080600;28;20144;-87
2022/09/07 11:15:55;;;;;;;9.00;2.97;;;35.30;99.90;;;;;;5092936;28;20032;-86
2022/09/07 11:18:29;;;;;;;10.10;2.50;;;34.10;99.90;;;;;;5092643;28;20028;-86
2022/09/07 11:20:59;;;;;;;5.97;2.45;;;33.50;99.90;;;;;;5092957;28;20032;-87
2022/09/07 11:23:46;;;;;;;7.53;2.75;;;33.30;99.90;;;;;;5092891;28;20027;-87
2022/09/07 11:26:30;;;;;;;6.03;2.60;;;33.50;99.90;;;;;;5093136;28;20553;-86
2022/09/07 11:29:16;;;;;;;7.43;2.70;;;32.90;99.90;;;;;;5093161;28;20107;-87
2022/09/07 11:31:50;;;;;;;6.32;2.90;;;32.60;99.90;;;;;;5071824;28;20048;-86
2022/09/07 11:34:20;;;;;;;7.65;2.80;;;35.50;99.90;;;;;;5072476;28;20033;-86
2022/09/07 11:37:16;;;;;;;8.00;2.60;;;40.20;99.90;;;;;;5072524;28;20020;-86
2022/09/07 11:39:43;;;;;;;5.75;2.58;;;37.90;99.90;;;;;;5072305;28;20086;-86
2022/09/07 11:42:25;;;;;;;7.38;2.65;;;40.90;99.90;;;;;;5072527;28;20111;-86
2022/09/07 11:45:01;;;;;;;6.82;2.45;;;43.20;99.90;;;;;;5072297;28;20384;-87
2022/09/07 11:47:43;;;;;;;9.70;2.75;;;42.80;99.90;;;;;;5072137;28;20024;-87
2022/09/07 11:50:17;;;;;;;9.70;2.75;;;39.40;99.90;;;;;;5072416;28;20036;-87
2022/09/07 11:53:26;;;;;;;5.90;2.40;;;37.50;99.90;;;;;;5072431;28;20032;-87
2022/09/07 11:56:02;;;;;;;4.80;2.45;;;35.70;99.90;;;;;;4971386;28;20077;-87
2022/09/07 11:58:47;;;;;;;6.80;2.60;;;34.20;99.90;;;;;;4971370;28;20043;-87
2022/09/07 12:01:48;;;;;;;5.13;2.38;;;33.80;99.90;;;;;;4971616;28;20082;-87
2022/09/07 12:04:53;;;;;;;5.88;3.33;;;33.30;99.90;;;;;;4932627;29;20036;-87
2022/09/07 12:07:40;;;;;;;6.20;2.75;;;33.50;99.90;;;;;;4924365;29;20050;-87
2022/09/07 12:10:39;;;;;;;8.90;2.70;;;33.30;99.90;;;;;;4932811;29;20063;-87
2022/09/07 12:13:25;;;;;;;8.88;2.78;;;34.00;99.90;;;;;;4932895;29;20069;-87
2022/09/07 12:16:33;;;;;;;5.88;3.10;;;33.60;99.90;;;;;;4938513;29;20524;-87
2022/09/07 12:19:28;;;;;;;7.50;2.40;;;33.20;99.90;;;;;;4951896;29;20035;-87
2022/09/07 12:21:56;;;;;;;18.13;7.60;;;34.00;99.90;;;;;;4943712;29;20105;-87
2022/09/07 12:24:52;;;;;;;6.22;2.70;;;35.00;99.90;;;;;;4952157;29;20042;-87
2022/09/07 12:27:21;;;;;;;6.22;2.50;;;34.40;99.90;;;;;;4952185;29;20059;-86
2022/09/07 12:30:10;;;;;;;6.47;2.60;;;33.90;99.90;;;;;;4978745;28;20109;-87
2022/09/07 12:32:47;;;;;;;7.53;2.70;;;33.80;99.90;;;;;;4952005;29;20047;-87
2022/09/07 12:35:25;;;;;;;13.27;2.90;;;34.80;99.90;;;;;;4951715;29;20384;-87
2022/09/07 12:37:52;;;;;;;8.70;2.90;;;35.20;99.90;;;;;;4952468;29;20043;-87
2022/09/07 12:40:27;;;;;;;7.55;2.42;;;37.40;99.90;;;;;;4955734;28;20529;-86
2022/09/07 12:43:11;;;;;;;6.68;2.80;;;37.30;99.90;;;;;;4992635;28;20538;-87
2022/09/07 12:45:37;;;;;;;7.72;2.72;;;37.40;99.90;;;;;;4993922;28;20100;-87
2022/09/07 12:48:14;;;;;;;10.32;2.90;;;37.40;99.90;;;;;;4994693;28;20034;-87
2022/09/07 12:50:53;;;;;;;8.88;2.67;;;37.90;99.90;;;;;;4994104;28;20063;-87
2022/09/07 12:53:49;;;;;;;7.38;2.55;;;39.30;99.90;;;;;;4993918;28;20437;-87
2022/09/07 12:56:27;;;;;;;9.07;2.60;;;40.60;99.90;;;;;;4993894;28;20038;-87
2022/09/07 12:59:20;;;;;;;6.95;2.28;;;37.90;99.90;;;;;;4993565;28;20477;-87
2022/09/07 13:01:52;;;;;;;7.28;2.60;;;35.80;99.90;;;;;;4993998;28;20038;-87
2022/09/07 13:04:41;;;;;;;7.18;2.40;;;35.60;99.90;;;;;;4993747;28;20038;-87
2022/09/07 13:07:06;;;;;;;8.02;2.70;;;34.80;99.90;;;;;;4993680;28;20030;-87
2022/09/07 13:09:52;;;;;;;7.47;2.58;;;34.10;99.90;;;;;;5032143;28;20036;-87
2022/09/07 13:12:30;;;;;;;7.32;2.72;;;36.20;99.90;;;;;;5075194;28;20032;-87
2022/09/07 13:14:57;;;;;;;8.15;2.70;;;36.20;99.90;;;;;;5075291;28;20120;-87